地図

経路データ

SID SEASON NUMBER BASIN SUBBASIN NAME ISO_TIME NATURE LAT LON WMO_WIND WMO_PRES WMO_AGENCY TRACK_TYPE DIST2LAND LANDFALL IFLAG USA_AGENCY USA_ATCF_ID USA_LAT USA_LON USA_RECORD USA_STATUS USA_WIND USA_PRES USA_SSHS USA_R34_NE USA_R34_SE USA_R34_SW USA_R34_NW USA_R50_NE USA_R50_SE USA_R50_SW USA_R50_NW USA_R64_NE USA_R64_SE USA_R64_SW USA_R64_NW USA_POCI USA_ROCI USA_RMW USA_EYE TOKYO_LAT TOKYO_LON TOKYO_GRADE TOKYO_WIND TOKYO_PRES TOKYO_R50_DIR TOKYO_R50_LONG TOKYO_R50_SHORT TOKYO_R30_DIR TOKYO_R30_LONG TOKYO_R30_SHORT TOKYO_LAND CMA_LAT CMA_LON CMA_CAT CMA_WIND CMA_PRES HKO_LAT HKO_LON HKO_CAT HKO_WIND HKO_PRES NEWDELHI_LAT NEWDELHI_LON NEWDELHI_GRADE NEWDELHI_WIND NEWDELHI_PRES NEWDELHI_CI NEWDELHI_DP NEWDELHI_POCI REUNION_LAT REUNION_LON REUNION_TYPE REUNION_WIND REUNION_PRES REUNION_TNUM REUNION_CI REUNION_RMW REUNION_R34_NE REUNION_R34_SE REUNION_R34_SW REUNION_R34_NW REUNION_R50_NE REUNION_R50_SE REUNION_R50_SW REUNION_R50_NW REUNION_R64_NE REUNION_R64_SE REUNION_R64_SW REUNION_R64_NW BOM_LAT BOM_LON BOM_TYPE BOM_WIND BOM_PRES BOM_TNUM BOM_CI BOM_RMW BOM_R34_NE BOM_R34_SE BOM_R34_SW BOM_R34_NW BOM_R50_NE BOM_R50_SE BOM_R50_SW BOM_R50_NW BOM_R64_NE BOM_R64_SE BOM_R64_SW BOM_R64_NW BOM_ROCI BOM_POCI BOM_EYE BOM_POS_METHOD BOM_PRES_METHOD NADI_LAT NADI_LON NADI_CAT NADI_WIND NADI_PRES WELLINGTON_LAT WELLINGTON_LON WELLINGTON_WIND WELLINGTON_PRES DS824_LAT DS824_LON DS824_STAGE DS824_WIND DS824_PRES TD9636_LAT TD9636_LON TD9636_STAGE TD9636_WIND TD9636_PRES TD9635_LAT TD9635_LON TD9635_WIND TD9635_PRES TD9635_ROCI NEUMANN_LAT NEUMANN_LON NEUMANN_CLASS NEUMANN_WIND NEUMANN_PRES MLC_LAT MLC_LON MLC_CLASS MLC_WIND MLC_PRES USA_GUST BOM_GUST BOM_GUST_PER REUNION_GUST REUNION_GUST_PER USA_SEAHGT USA_SEARAD_NE USA_SEARAD_SE USA_SEARAD_SW USA_SEARAD_NW STORM_SPEED STORM_DIR
1966258N14251 1966 79 EP MM JOYCE 1966-09-15 00:00:00 TS 14.2000 -108.800 25 hurdat_epa main 703 703 O________OO___ hurdat_epa EP101966 14.2000 -108.800 TD 25 -1 14.2000 -108.800 TC 25 14.2000 -108.800 1 9 262
1966258N14251 1966 79 EP MM JOYCE 1966-09-15 03:00:00 TS 14.1429 -109.243 main 738 738 P________PP___ EP101966 14.1426 -109.240 TD 25 -1 14.1426 -109.240 TC 25 14.1441 -109.255 1 9 263
1966258N14251 1966 79 EP MM JOYCE 1966-09-15 06:00:00 TS 14.1000 -109.704 25 hurdat_epa main 773 773 O________OP___ hurdat_epa EP101966 14.1000 -109.700 TD 25 -1 14.1000 -109.700 TC 25 14.1002 -109.718 1 9 266
1966258N14251 1966 79 EP MM JOYCE 1966-09-15 09:00:00 TS 14.0842 -110.193 main 810 810 P________PP___ EP101966 14.0849 -110.193 TD 25 -1 14.0849 -110.193 TC 25 14.0812 -110.197 1 10 270
1966258N14251 1966 79 EP MM JOYCE 1966-09-15 12:00:00 TS 14.1000 -110.700 25 hurdat_epa main 848 848 O________OO___ hurdat_epa EP101966 14.1000 -110.700 TD 25 -1 14.1000 -110.700 TC 25 14.1000 -110.700 1 10 273
1966258N14251 1966 79 EP MM JOYCE 1966-09-15 15:00:00 TS 14.1348 -111.212 main 886 886 P________PP___ EP101966 14.1274 -111.208 TD 25 -1 14.1274 -111.208 TC 25 14.1644 -111.227 1 10 277
1966258N14251 1966 79 EP MM JOYCE 1966-09-15 18:00:00 TS 14.2126 -111.709 25 hurdat_epa main 917 917 O________OP___ hurdat_epa EP101966 14.2000 -111.700 TD 25 -1 14.2000 -111.700 TC 25 14.2630 -111.747 1 10 283
1966258N14251 1966 79 EP MM JOYCE 1966-09-15 21:00:00 TS 14.3501 -112.205 main 943 943 P________PP___ EP101966 14.3426 -112.202 TD 25 -1 14.3426 -112.202 TC 25 14.3801 -112.218 1 9 288
1966258N14251 1966 79 EP MM JOYCE 1966-09-16 00:00:00 TS 14.5000 -112.600 25 hurdat_epa main 969 969 O________OO___ hurdat_epa EP101966 14.5000 -112.600 TD 25 -1 14.5000 -112.600 TC 25 14.5000 -112.600 1 6 294
1966258N14251 1966 79 EP MM JOYCE 1966-09-16 03:00:00 TS 14.6081 -112.797 main 974 966 P________PP___ EP101966 14.6073 -112.795 TD 25 -1 14.6073 -112.795 TC 25 14.6113 -112.803 1 4 305
1966258N14251 1966 79 EP MM JOYCE 1966-09-16 06:00:00 TS 14.7043 -112.905 25 hurdat_epa main 966 956 O________OP___ hurdat_epa EP101966 14.7000 -112.900 TD 25 -1 14.7000 -112.900 TC 25 14.7214 -112.923 1 3 313
1966258N14251 1966 79 EP MM JOYCE 1966-09-16 09:00:00 TS 14.8101 -113.016 main 959 952 P________PP___ EP101966 14.8074 -113.013 TD 25 -1 14.8074 -113.013 TC 25 14.8208 -113.031 1 3 305
1966258N14251 1966 79 EP MM JOYCE 1966-09-16 12:00:00 TS 14.9000 -113.200 25 hurdat_epa main 956 953 O________OO___ hurdat_epa EP101966 14.9000 -113.200 TD 25 -1 14.9000 -113.200 TC 25 14.9000 -113.200 1 5 286
1966258N14251 1966 79 EP MM JOYCE 1966-09-16 15:00:00 TS 14.9647 -113.558 main 961 961 P________PP___ EP101966 14.9651 -113.562 TD 25 -1 14.9651 -113.562 TC 25 14.9632 -113.540 1 8 278
1966258N14251 1966 79 EP MM JOYCE 1966-09-16 18:00:00 TS 15.0006 -113.989 25 hurdat_epa main 978 978 O________OP___ hurdat_epa EP101966 15.0000 -114.000 TD 25 -1 15.0000 -114.000 TC 25 15.0031 -113.947 1 8 274
1966258N14251 1966 79 EP MM JOYCE 1966-09-16 21:00:00 TS 15.0152 -114.402 main 997 997 P________PP___ EP101966 15.0150 -114.408 TD 25 -1 15.0150 -114.408 TC 25 15.0163 -114.381 1 8 270
1966258N14251 1966 79 EP MM JOYCE 1966-09-17 00:00:00 TS 15.0000 -114.800 25 hurdat_epa main 1017 1017 O________OO___ hurdat_epa EP101966 15.0000 -114.800 TD 25 -1 15.0000 -114.800 TC 25 15.0000 -114.800 1 7 266
1966258N14251 1966 79 EP MM JOYCE 1966-09-17 03:00:00 TS 14.9602 -115.163 main 1038 1038 P________PP___ EP101966 14.9649 -115.165 TD 25 -1 14.9649 -115.165 TC 25 14.9413 -115.155 1 7 261
1966258N14251 1966 79 EP MM JOYCE 1966-09-17 06:00:00 TS 14.8914 -115.498 25 hurdat_epa main 1065 1065 O________OP___ hurdat_epa EP101966 14.9000 -115.500 TD 25 -1 14.9000 -115.500 TC 25 14.8572 -115.488 1 6 255
1966258N14251 1966 79 EP MM JOYCE 1966-09-17 09:00:00 TS 14.7938 -115.806 main 1092 1092 P________PP___ EP101966 14.7999 -115.808 TD 25 -1 14.7999 -115.808 TC 25 14.7695 -115.802 1 6 252
1966258N14251 1966 79 EP MM JOYCE 1966-09-17 12:00:00 TS 14.7000 -116.100 25 hurdat_epa main 1119 1119 O________OO___ hurdat_epa EP101966 14.7000 -116.100 TD 25 -1 14.7000 -116.100 TC 25 14.7000 -116.100 1 6 255
1966258N14251 1966 79 EP MM JOYCE 1966-09-17 15:00:00 TS 14.6328 -116.409 main 1146 1146 P________PP___ EP101966 14.6275 -116.408 TD 25 -1 14.6275 -116.408 TC 25 14.6540 -116.414 1 6 261
1966258N14251 1966 79 EP MM JOYCE 1966-09-17 18:00:00 TS 14.6065 -116.702 25 hurdat_epa main 1165 1165 O________OP___ hurdat_epa EP101966 14.6000 -116.700 TD 25 -1 14.6000 -116.700 TC 25 14.6325 -116.710 1 5 269
1966258N14251 1966 79 EP MM JOYCE 1966-09-17 21:00:00 TS 14.6249 -116.973 main 1184 1182 P________PP___ EP101966 14.6200 -116.972 TD 35 0 14.6200 -116.972 TC 35 14.6447 -116.976 1 5 281
1966258N14251 1966 79 EP MM JOYCE 1966-09-18 00:00:00 TS 14.7000 -117.200 45 hurdat_epa main 1189 1187 O________OO___ hurdat_epa EP101966 14.7000 -117.200 TS 45 0 14.7000 -117.200 TC 45 14.7000 -117.200 2 4 298
1966258N14251 1966 79 EP MM JOYCE 1966-09-18 03:00:00 TS 14.8277 -117.372 main 1194 1183 P________PP___ EP101966 14.8350 -117.372 TS 45 0 14.8350 -117.372 TC 45 14.7986 -117.368 2 4 315
1966258N14251 1966 79 EP MM JOYCE 1966-09-18 06:00:00 TS 14.9880 -117.499 45 hurdat_epa main 1183 1175 O________OP___ hurdat_epa EP101966 15.0000 -117.500 TS 45 0 15.0000 -117.500 TC 45 14.9398 -117.495 2 4 324
1966258N14251 1966 79 EP MM JOYCE 1966-09-18 09:00:00 TS 15.1362 -117.606 main 1182 1173 P________PP___ EP101966 15.1425 -117.608 TS 45 0 15.1425 -117.608 TC 45 15.1111 -117.599 2 4 328
1966258N14251 1966 79 EP MM JOYCE 1966-09-18 12:00:00 TS 15.3000 -117.700 45 hurdat_epa main 1173 1163 O________OO___ hurdat_epa EP101966 15.3000 -117.700 TS 45 0 15.3000 -117.700 TC 45 15.3000 -117.700 2 4 333
1966258N14251 1966 79 EP MM JOYCE 1966-09-18 15:00:00 TS 15.4960 -117.798 main 1163 1155 P________PP___ EP101966 15.4925 -117.793 TS 45 0 15.4925 -117.793 TC 45 15.5100 -117.821 2 5 334
1966258N14251 1966 79 EP MM JOYCE 1966-09-18 18:00:00 TS 15.7060 -117.908 45 hurdat_epa main 1155 1147 O________OP___ hurdat_epa EP101966 15.7000 -117.900 TS 45 0 15.7000 -117.900 TC 45 15.7299 -117.942 2 5 330
1966258N14251 1966 79 EP MM JOYCE 1966-09-18 21:00:00 TS 15.9190 -118.048 main 1147 1147 P________PP___ EP101966 15.9150 -118.042 TS 35 0 15.9150 -118.042 TC 35 15.9350 -118.068 2 5 325
1966258N14251 1966 79 EP MM JOYCE 1966-09-19 00:00:00 TS 16.1000 -118.200 25 hurdat_epa main 1147 1147 O________OO___ hurdat_epa EP101966 16.1000 -118.200 TD 25 -1 16.1000 -118.200 TC 25 16.1000 -118.200 2 4 317
1966258N14251 1966 79 EP MM JOYCE 1966-09-19 03:00:00 TS 16.2283 -118.353 main 1154 1145 P________PP___ EP101966 16.2300 -118.350 TD 25 -1 16.2300 -118.350 TC 25 16.2216 -118.363 2 4 304
1966258N14251 1966 79 EP MM JOYCE 1966-09-19 06:00:00 TS 16.2995 -118.506 25 hurdat_epa main 1151 1151 O________OP___ hurdat_epa EP101966 16.3000 -118.500 TD 25 -1 16.3000 -118.500 TC 25 16.2976 -118.530 2 3 288
1966258N14251 1966 79 EP MM JOYCE 1966-09-19 09:00:00 TS 16.3290 -118.668 main 1163 1163 P________PP___ EP101966 16.3300 -118.665 TD 25 -1 16.3300 -118.665 TC 25 16.3248 -118.682 2 3 270
1966258N14251 1966 79 EP MM JOYCE 1966-09-19 12:00:00 TS 16.3000 -118.800 25 hurdat_epa main 1169 1169 O________OO___ hurdat_epa EP101966 16.3000 -118.800 TD 25 -1 16.3000 -118.800 TC 25 16.3000 -118.800 6 2 242
1966258N14251 1966 79 EP MM JOYCE 1966-09-19 15:00:00 TS 16.2230 -118.873 main 1184 1184 P________PP___ EP101966 16.2225 -118.873 TD 25 -1 16.2225 -118.873 TC 25 16.2252 -118.877 6 2 205
1966258N14251 1966 79 EP MM JOYCE 1966-09-19 18:00:00 TS 16.1005 -118.904 25 hurdat_epa main 1194 1194 O________OP___ hurdat_epa EP101966 16.1000 -118.900 TD 25 -1 16.1000 -118.900 TC 25 16.1024 -118.918 6 3 187
1966258N14251 1966 79 EP MM JOYCE 1966-09-19 21:00:00 TS 15.9567 -118.917 main 1203 1203 P________PP___ EP101966 15.9575 -118.915 TD 25 -1 15.9575 -118.915 TC 25 15.9534 -118.924 6 3 176
1966258N14251 1966 79 EP MM JOYCE 1966-09-20 00:00:00 TS 15.8000 -118.900 25 hurdat_epa main 1221 1221 O________OO___ hurdat_epa EP101966 15.8000 -118.900 TD 25 -1 15.8000 -118.900 TC 25 15.8000 -118.900 6 3 169
1966258N14251 1966 79 EP MM JOYCE 1966-09-20 03:00:00 TS 15.6459 -118.862 main 1240 1232 P________PP___ EP101966 15.6425 -118.865 TD 25 -1 15.6425 -118.865 TC 25 15.6597 -118.849 6 3 162
1966258N14251 1966 79 EP MM JOYCE 1966-09-20 06:00:00 TS 15.5065 -118.795 25 hurdat_epa main 1239 1239 O________OP___ hurdat_epa EP101966 15.5000 -118.800 TD 25 -1 15.5000 -118.800 TC 25 15.5326 -118.777 6 3 149
1966258N14251 1966 79 EP MM JOYCE 1966-09-20 09:00:00 TS 15.3948 -118.704 main 1239 1239 P________PP___ EP101966 15.3900 -118.707 TD 25 -1 15.3900 -118.707 TC 25 15.4141 -118.692 6 3 138
1966258N14251 1966 79 EP MM JOYCE 1966-09-20 12:00:00 TS 15.3000 -118.600 25 hurdat_epa main 1239 O________OO___ hurdat_epa EP101966 15.3000 -118.600 TD 25 -1 15.3000 -118.600 TC 25 15.3000 -118.600 6 3 134

IBTrACS Databaseについて

本データベースは、米国NOAAが公開する1842年以降の世界の熱帯低気圧のベストトラックデータアーカイブInternational Best Track Archive for Climate Stewardship (IBTrACS)を、ウェブで閲覧しやすい形式に変換したものです。

最終更新日:2021-12-01